Raleigh County Memorial Airport
KBKW : now visible

Airfield :











YOU CAN JOIN US ON...

 
LOGIN :

Register | Disclaimer

   EN    FR    IT 

 









Legend :    VFR   Marginal VFR   IFR   Intensive IFR   Very Intensive IFR
Visi :
Ceiling :
>= 8 km
>= 3000ft
5 to 8 km
1000 to 3000 ft
1500m to 5 km
500 to 1000 ft
800 to 1500m
200 to 500 ft
< 800m
< 200 ft
Symbols :   Thunderstorms  Fog  Heavy snow  Heavy precipitations  Wind > 20 kt






- Airport Elevation : 2504 ft
- IATA code : BKW


KBKW - Raleigh County Memorial

CURRENT METAR :
  • 161229Z AUTO 23014G20KT 10SM -RA FEW012 BKN055 OVC070 11/09 A3004 RMK AO2 P0005 T01060089

EXPIRED METARs :
  • 161214Z AUTO 21012G19KT 5SM -RA BR SCT013 BKN022 OVC049 11/08 A3003 RMK AO2 CIG 017 RWY19 P0004 T01060083
  • 161151Z AUTO 23013G22KT 6SM RA BR SCT014 BKN020 OVC050 11/08 A3002 RMK AO2 RAB1052 SLP173 P0002 60002 70002 T01060083 10117 20022 53015
  • 161119Z AUTO 22012KT 10SM -RA BKN021 BKN070 OVC095 11/07 A3001 RMK AO2 RAB1052 P0001 T01110072
  • 161051Z AUTO 22014G22KT 10SM FEW024 BKN046 OVC070 12/06 A3000 RMK AO2 CIG 036 RWY19 SLP162 T01170061
  • 160951Z AUTO 22014KT 10SM BKN034 OVC047 11/06 A2998 RMK AO2 RAB07E16 SLP155 P0000 T01110061

TAF KBKW
Valid from the 16 at 12:00 until the 17 at 12:00 UTC


161132Z 1612/1712 22011G19KT 6SM RA OVC019
FM161500 20011KT P6SM OVC024
FM170200 18010G17KT 5SM RA OVC021
FM171000 25007KT 4SM SHRA OVC017



MET'MAP, your aeronautical weather chart ! - Copyright ORBIFLY December 2007 - Disclaimer

ORBIFLY MET'MAP TEAM :

Programming & Development : Alexandra Zaïnal
Concept & original design : Baudouin d'Aumeries
Assistance for programming : Marc-Olivier Méhu
Technical & hardware support : Manuel Goepfert

Contact : metmap@orbifly.com




SOURCES & CREDITS :

   NOAA       Earth
Advisory